createdAt,value
2023-02-15T00:01:29.170Z,5.03
2023-02-15T00:04:01.403Z,7.93
2023-02-15T00:06:31.040Z,5.67
2023-02-15T00:09:00.793Z,4.93
2023-02-15T00:11:51.265Z,7.00
2023-02-15T00:14:21.776Z,6.63
2023-02-15T00:16:52.054Z,7.37
2023-02-15T00:19:24.961Z,5.73
2023-02-15T00:21:54.650Z,7.67
2023-02-15T00:24:24.166Z,6.43
2023-02-15T00:26:53.802Z,7.57
2023-02-15T00:29:24.239Z,6.47
2023-02-15T00:31:54.306Z,6.73
2023-02-15T00:34:30.767Z,8.50
2023-02-15T00:37:00.793Z,7.47
2023-02-15T00:39:30.367Z,7.00
2023-02-15T00:41:59.896Z,7.73
2023-02-15T00:44:29.509Z,6.40
2023-02-15T00:46:59.685Z,6.90
2023-02-15T00:49:31.938Z,7.53
2023-02-15T00:52:01.864Z,6.57
2023-02-15T00:54:31.465Z,7.63
2023-02-15T00:57:01.026Z,5.63
2023-02-15T00:59:30.979Z,7.43
2023-02-15T01:02:00.632Z,6.07
2023-02-15T01:04:32.863Z,9.43
2023-02-15T01:07:03.030Z,5.77
2023-02-15T01:09:32.536Z,7.37
2023-02-15T01:12:02.148Z,7.47
2023-02-15T01:14:31.674Z,7.37
2023-02-15T01:17:01.260Z,8.53
2023-02-15T01:19:33.444Z,5.87
2023-02-15T01:22:03.016Z,8.40
2023-02-15T01:24:32.553Z,7.80
2023-02-15T01:27:02.145Z,7.10
2023-02-15T01:29:31.702Z,10.67
2023-02-15T01:32:01.404Z,11.80
2023-02-15T01:34:33.694Z,9.37
2023-02-15T01:37:03.351Z,9.20
2023-02-15T01:39:32.898Z,7.83
2023-02-15T01:42:02.485Z,11.60
2023-02-15T01:44:47.068Z,9.87
2023-02-15T01:47:19.077Z,8.90
2023-02-15T01:49:51.651Z,9.53
2023-02-15T01:52:21.633Z,8.63
2023-02-15T01:54:53.245Z,9.80
2023-02-15T01:57:24.788Z,10.93
2023-02-15T01:59:57.395Z,10.50
2023-02-15T02:02:28.386Z,10.60
2023-02-15T02:05:04.232Z,13.00
2023-02-15T02:07:36.358Z,10.60
2023-02-15T02:10:06.465Z,9.40
2023-02-15T02:12:38.114Z,8.57
2023-02-15T02:15:08.234Z,9.93
2023-02-15T02:17:46.172Z,8.27
2023-02-15T02:20:34.000Z,9.90
2023-02-15T02:23:11.888Z,8.87
2023-02-15T02:26:01.443Z,7.93
2023-02-15T02:28:42.584Z,7.47
2023-02-15T02:31:25.061Z,8.50
2023-02-15T02:34:02.007Z,8.57
2023-02-15T02:36:35.619Z,9.00
2023-02-15T02:39:11.127Z,8.07
2023-02-15T02:41:43.852Z,6.70
2023-02-15T02:44:16.829Z,7.60
2023-02-15T02:46:50.210Z,7.70
2023-02-15T02:49:31.242Z,9.23
2023-02-15T02:52:02.080Z,8.23
2023-02-15T02:54:32.011Z,6.67
2023-02-15T02:57:03.249Z,8.07
2023-02-15T02:59:34.463Z,7.13
2023-02-15T03:02:08.430Z,6.57
2023-02-15T03:04:43.415Z,8.83
2023-02-15T03:07:15.932Z,9.87
2023-02-15T03:09:46.870Z,8.50
2023-02-15T03:12:18.542Z,8.70
2023-02-15T03:14:52.369Z,7.50
2023-02-15T03:17:22.908Z,6.70
2023-02-15T03:19:56.743Z,7.57
2023-02-15T03:22:30.102Z,11.33
2023-02-15T03:25:00.766Z,6.87
2023-02-15T03:27:34.644Z,7.13
2023-02-15T03:30:07.086Z,7.07
2023-02-15T03:32:37.362Z,7.13
2023-02-15T03:35:10.033Z,7.47
2023-02-15T03:37:41.736Z,11.73
2023-02-15T03:40:26.029Z,8.60
2023-02-15T03:42:59.503Z,5.77
2023-02-15T03:45:31.333Z,8.70
2023-02-15T03:48:02.628Z,7.13
2023-02-15T03:50:48.827Z,6.23
2023-02-15T03:53:22.037Z,9.03
2023-02-15T03:55:52.324Z,6.43
2023-02-15T03:58:34.367Z,7.60
2023-02-15T04:01:19.411Z,7.27
2023-02-15T04:03:53.371Z,7.63
2023-02-15T04:06:25.510Z,11.37
2023-02-15T04:09:07.542Z,7.97
2023-02-15T04:11:37.090Z,9.47
2023-02-15T04:14:26.583Z,8.50
2023-02-15T04:16:53.577Z,9.07
2023-02-15T04:19:35.761Z,8.77
2023-02-15T04:22:20.356Z,7.13
2023-02-15T04:25:02.293Z,7.37
2023-02-15T04:27:31.803Z,7.40
2023-02-15T04:30:01.346Z,8.80
2023-02-15T04:32:31.010Z,9.50
2023-02-15T04:35:00.521Z,7.33
2023-02-15T04:37:32.758Z,5.67
2023-02-15T04:40:02.281Z,7.57
2023-02-15T04:42:31.810Z,7.50
2023-02-15T04:45:01.456Z,6.10
2023-02-15T04:47:30.957Z,6.83
2023-02-15T04:50:00.558Z,7.50
2023-02-15T04:52:32.710Z,6.87
2023-02-15T04:55:02.317Z,9.07
2023-02-15T04:57:31.807Z,7.10
2023-02-15T05:00:02.108Z,7.97
2023-02-15T05:02:31.729Z,9.53
2023-02-15T05:05:01.227Z,6.90
2023-02-15T05:07:33.505Z,6.47
2023-02-15T05:10:03.002Z,7.73
2023-02-15T05:12:32.563Z,5.63
2023-02-15T05:15:02.231Z,9.47
2023-02-15T05:17:31.708Z,9.67
2023-02-15T05:20:01.289Z,8.97
2023-02-15T05:22:33.432Z,7.03
2023-02-15T05:25:15.472Z,6.97
2023-02-15T05:27:57.569Z,7.97
2023-02-15T05:30:27.298Z,6.70
2023-02-15T05:32:56.995Z,7.60
2023-02-15T05:35:26.632Z,6.97
2023-02-15T05:37:58.722Z,5.73
2023-02-15T05:40:28.296Z,9.77
2023-02-15T05:42:57.741Z,7.07
2023-02-15T05:45:27.594Z,10.50
2023-02-15T05:47:59.138Z,6.63
2023-02-15T05:50:28.721Z,9.57
2023-02-15T05:53:00.902Z,6.40
2023-02-15T05:55:30.598Z,8.53
2023-02-15T05:58:00.084Z,10.27
2023-02-15T06:00:29.870Z,10.03
2023-02-15T06:02:59.408Z,7.70
2023-02-15T06:05:28.960Z,8.93
2023-02-15T06:08:01.069Z,8.07
2023-02-15T06:10:30.594Z,8.13
2023-02-15T06:13:00.047Z,7.70
2023-02-15T06:15:29.690Z,7.93
2023-02-15T06:17:59.140Z,7.93
2023-02-15T06:20:29.067Z,5.37
2023-02-15T06:23:01.214Z,6.57
2023-02-15T06:25:30.784Z,6.83
2023-02-15T06:28:00.220Z,10.63
2023-02-15T06:30:29.756Z,7.73
2023-02-15T06:32:59.311Z,7.63
2023-02-15T06:35:28.845Z,5.97
2023-02-15T06:38:00.954Z,7.57
2023-02-15T06:40:30.540Z,7.40
2023-02-15T06:43:00.079Z,6.73
2023-02-15T06:45:29.677Z,7.23
2023-02-15T06:47:59.113Z,8.90
2023-02-15T06:50:28.608Z,8.90
2023-02-15T06:53:02.248Z,5.90
2023-02-15T06:55:31.921Z,9.10
2023-02-15T06:58:01.392Z,8.80
2023-02-15T07:00:31.084Z,7.73
2023-02-15T07:03:03.227Z,10.13
2023-02-15T07:05:32.775Z,10.20
2023-02-15T07:08:04.913Z,9.33
2023-02-15T07:10:34.473Z,9.83
2023-02-15T07:13:01.387Z,10.63
2023-02-15T07:15:30.833Z,6.67
2023-02-15T07:18:00.938Z,9.20
2023-02-15T07:20:30.640Z,8.00
2023-02-15T07:23:00.118Z,7.33
2023-02-15T07:25:32.232Z,7.63
2023-02-15T07:28:02.076Z,9.03
2023-02-15T07:30:32.134Z,7.73
2023-02-15T07:33:14.305Z,8.60
2023-02-15T07:35:50.102Z,6.87
2023-02-15T07:38:19.744Z,8.80
2023-02-15T07:40:51.815Z,8.60
2023-02-15T07:43:21.438Z,6.67
2023-02-15T07:45:50.939Z,7.37
2023-02-15T07:48:20.812Z,6.83
2023-02-15T07:50:50.469Z,7.50
2023-02-15T07:53:19.923Z,8.87
2023-02-15T07:55:53.436Z,9.00
2023-02-15T07:58:43.285Z,9.57
2023-02-15T08:01:12.870Z,11.43
2023-02-15T08:03:42.373Z,8.50
2023-02-15T08:06:12.554Z,9.53
2023-02-15T08:08:42.014Z,10.00
2023-02-15T08:11:37.836Z,8.53
2023-02-15T08:14:08.257Z,12.03
2023-02-15T08:16:38.957Z,10.23
2023-02-15T08:19:09.941Z,9.83
2023-02-15T08:21:40.031Z,10.33
2023-02-15T08:24:10.636Z,8.17
2023-02-15T08:26:43.167Z,7.57
2023-02-15T08:29:12.971Z,10.53
2023-02-15T08:31:42.797Z,7.83
2023-02-15T08:34:12.693Z,10.47
2023-02-15T08:36:42.349Z,8.63
2023-02-15T08:39:11.894Z,9.23
2023-02-15T08:41:45.894Z,9.50
2023-02-15T08:44:15.779Z,8.03
2023-02-15T08:46:46.666Z,8.87
2023-02-15T08:49:17.373Z,9.23
2023-02-15T08:51:46.977Z,10.40
2023-02-15T08:54:17.027Z,11.03
2023-02-15T08:56:49.199Z,11.40
2023-02-15T08:59:19.842Z,10.10
2023-02-15T09:01:50.018Z,10.93
2023-02-15T09:04:20.111Z,12.20
2023-02-15T09:06:50.863Z,18.43
2023-02-15T09:09:20.870Z,9.57
2023-02-15T09:11:59.177Z,10.20
2023-02-15T09:14:29.754Z,10.47
2023-02-15T09:16:59.300Z,12.43
2023-02-15T09:19:28.831Z,13.83
2023-02-15T09:21:59.254Z,13.10
2023-02-15T09:24:28.783Z,9.70
2023-02-15T09:27:00.897Z,11.87
2023-02-15T09:29:30.438Z,9.20
2023-02-15T09:31:59.950Z,8.87
2023-02-15T09:34:29.524Z,13.17
2023-02-15T09:36:59.026Z,10.90
2023-02-15T09:39:29.104Z,10.93
2023-02-15T09:42:14.743Z,11.53
2023-02-15T09:44:52.578Z,10.53
2023-02-15T09:47:31.025Z,10.60
2023-02-15T09:50:03.364Z,10.50
2023-02-15T09:52:38.882Z,12.13
2023-02-15T09:55:13.972Z,10.23
2023-02-15T09:57:51.747Z,12.80
2023-02-15T10:00:27.499Z,10.13
2023-02-15T10:03:06.048Z,11.47
2023-02-15T10:05:41.671Z,15.17
2023-02-15T10:08:28.982Z,12.33
2023-02-15T10:11:23.988Z,11.70
2023-02-15T10:14:02.922Z,11.40
2023-02-15T10:16:38.253Z,12.83
2023-02-15T10:19:12.117Z,11.80
2023-02-15T10:21:48.627Z,11.50
2023-02-15T10:24:27.466Z,10.67
2023-02-15T10:26:59.299Z,11.57
2023-02-15T10:29:36.270Z,9.93
2023-02-15T10:32:10.184Z,11.27
2023-02-15T10:34:42.104Z,11.43
2023-02-15T10:37:25.248Z,11.77
2023-02-15T10:39:59.032Z,11.70
2023-02-15T10:42:32.381Z,9.50
2023-02-15T10:45:17.729Z,11.37
2023-02-15T10:48:02.065Z,9.80
2023-02-15T10:50:36.394Z,9.40
2023-02-15T10:53:14.817Z,10.63
2023-02-15T10:55:50.927Z,12.60
2023-02-15T10:58:26.869Z,8.33
2023-02-15T11:01:05.080Z,11.43
2023-02-15T11:03:43.169Z,8.50
2023-02-15T11:06:13.740Z,11.13
2023-02-15T11:08:44.188Z,9.30
2023-02-15T11:11:16.088Z,8.53
2023-02-15T11:13:48.806Z,9.90
2023-02-15T11:16:23.507Z,9.67
2023-02-15T11:18:55.401Z,9.57
2023-02-15T11:21:26.625Z,8.30
2023-02-15T11:23:56.404Z,12.00
2023-02-15T11:26:30.830Z,9.13
2023-02-15T11:29:02.393Z,9.93
2023-02-15T11:31:42.767Z,8.85
2023-02-15T11:34:16.481Z,8.83
2023-02-15T11:36:47.376Z,7.67
2023-02-15T11:39:18.175Z,11.07
2023-02-15T11:41:52.279Z,15.60
2023-02-15T11:44:24.676Z,9.45
2023-02-15T11:46:56.976Z,10.98
2023-02-15T11:49:28.024Z,11.93
2023-02-15T11:51:58.236Z,10.10
2023-02-15T11:54:30.476Z,11.23
2023-02-15T11:57:01.839Z,14.43
2023-02-15T11:59:33.523Z,9.03
2023-02-15T12:02:05.633Z,7.93
2023-02-15T12:04:37.167Z,9.30
2023-02-15T12:07:09.077Z,11.00
2023-02-15T12:09:39.968Z,10.03
2023-02-15T12:12:26.481Z,9.80
2023-02-15T12:14:56.652Z,10.52
2023-02-15T12:17:30.090Z,8.85
2023-02-15T12:20:00.587Z,10.70
2023-02-15T12:22:31.795Z,10.45
2023-02-15T12:25:03.335Z,10.35
2023-02-15T12:27:34.476Z,7.78
2023-02-15T12:30:05.554Z,8.23
2023-02-15T12:32:38.693Z,7.10
2023-02-15T12:35:12.184Z,8.82
2023-02-15T12:37:42.266Z,9.00
2023-02-15T12:40:23.360Z,8.05
2023-02-15T12:42:53.056Z,8.38
2023-02-15T12:45:29.902Z,10.10
2023-02-15T12:48:17.931Z,6.90
2023-02-15T12:50:54.701Z,9.55
2023-02-15T12:53:26.297Z,9.98
2023-02-15T12:55:57.184Z,7.72
2023-02-15T12:58:27.615Z,6.55
2023-02-15T13:01:06.295Z,6.93
2023-02-15T13:03:39.614Z,7.32
2023-02-15T13:06:09.785Z,7.57
2023-02-15T13:08:42.315Z,6.65
2023-02-15T13:11:13.136Z,6.30
2023-02-15T13:13:51.334Z,5.97
2023-02-15T13:16:23.707Z,7.60
2023-02-15T13:18:56.783Z,6.20
2023-02-15T13:21:28.644Z,6.60
2023-02-15T13:24:01.004Z,6.60
2023-02-15T13:26:32.822Z,5.40
2023-02-15T13:29:03.979Z,5.15
2023-02-15T13:31:34.320Z,6.72
2023-02-15T13:34:11.146Z,6.18
2023-02-15T13:36:45.129Z,6.63
2023-02-15T13:39:20.026Z,6.00
2023-02-15T13:41:55.197Z,6.47
2023-02-15T13:44:29.902Z,6.18
2023-02-15T13:47:06.948Z,5.93
2023-02-15T13:49:47.166Z,6.85
2023-02-15T13:52:21.992Z,7.07
2023-02-15T13:55:07.092Z,6.82
2023-02-15T13:57:56.679Z,6.50
2023-02-15T14:00:29.219Z,6.32
2023-02-15T14:03:14.510Z,5.82
2023-02-15T14:05:58.035Z,8.93
2023-02-15T14:08:36.758Z,7.70
2023-02-15T14:11:10.991Z,8.00
2023-02-15T14:13:48.393Z,6.90
2023-02-15T14:16:21.323Z,6.45
2023-02-15T14:18:52.724Z,9.35
2023-02-15T14:21:29.388Z,10.30
2023-02-15T14:24:10.829Z,7.45
2023-02-15T14:26:44.320Z,6.53
2023-02-15T14:29:20.189Z,7.50
2023-02-15T14:31:51.125Z,8.85
2023-02-15T14:34:24.287Z,9.05
2023-02-15T14:36:57.202Z,7.28
2023-02-15T14:39:42.494Z,7.03
2023-02-15T14:42:17.206Z,8.35
2023-02-15T14:44:49.588Z,6.90
2023-02-15T14:47:22.978Z,6.60
2023-02-15T14:49:52.533Z,6.57
2023-02-15T14:52:24.671Z,7.68
2023-02-15T14:54:58.856Z,8.13
2023-02-15T14:57:36.043Z,8.32
2023-02-15T15:00:21.388Z,6.30
2023-02-15T15:02:52.581Z,7.25
2023-02-15T15:05:23.645Z,7.28
2023-02-15T15:07:57.042Z,7.68
2023-02-15T15:10:43.333Z,6.13
2023-02-15T15:13:27.780Z,6.93
2023-02-15T15:15:57.384Z,7.78
2023-02-15T15:18:41.690Z,8.25
2023-02-15T15:21:11.484Z,9.00
2023-02-15T15:23:48.070Z,12.30
2023-02-15T15:26:49.510Z,7.78
2023-02-15T15:29:40.141Z,10.35
2023-02-15T15:32:12.471Z,8.07
2023-02-15T15:35:02.527Z,7.93
2023-02-15T15:37:46.462Z,8.15
2023-02-15T15:40:30.796Z,7.95
2023-02-15T15:43:17.984Z,7.68
2023-02-15T15:45:57.339Z,9.30
2023-02-15T15:48:32.685Z,8.05
2023-02-15T15:51:03.489Z,8.80
2023-02-15T15:53:35.553Z,12.50
2023-02-15T15:56:07.371Z,9.95
2023-02-15T15:58:37.266Z,8.90
2023-02-15T16:01:12.632Z,8.82
2023-02-15T16:03:42.285Z,7.38
2023-02-15T16:06:15.819Z,8.38
2023-02-15T16:08:45.360Z,10.73
2023-02-15T16:11:17.650Z,9.27
2023-02-15T16:13:47.683Z,9.20
2023-02-15T16:16:24.006Z,9.40
2023-02-15T16:18:53.956Z,9.65
2023-02-15T16:21:24.714Z,13.10
2023-02-15T16:24:00.389Z,10.75
2023-02-15T16:26:40.582Z,10.85
2023-02-15T16:29:17.242Z,9.27
2023-02-15T16:31:59.989Z,11.05
2023-02-15T16:34:33.402Z,11.10
2023-02-15T16:37:18.902Z,9.80
2023-02-15T16:39:49.554Z,13.13
2023-02-15T16:42:20.041Z,11.95
2023-02-15T16:44:50.528Z,11.60
2023-02-15T16:47:24.752Z,11.63
2023-02-15T16:49:55.687Z,12.10
2023-02-15T16:52:26.322Z,11.27
2023-02-15T16:54:58.415Z,14.07
2023-02-15T16:57:29.997Z,17.27
2023-02-15T17:00:01.308Z,13.90
2023-02-15T17:02:55.635Z,12.20
2023-02-15T17:05:23.824Z,15.57
2023-02-15T17:07:54.583Z,15.50
2023-02-15T17:10:31.656Z,12.93
2023-02-15T17:13:04.956Z,14.30
2023-02-15T17:15:36.035Z,11.57
2023-02-15T17:18:13.927Z,11.90
2023-02-15T17:20:45.533Z,13.57
2023-02-15T17:23:26.427Z,15.33
2023-02-15T17:25:56.074Z,17.17
2023-02-15T17:28:26.858Z,18.73
2023-02-15T17:30:57.555Z,17.27
2023-02-15T17:33:40.453Z,13.77
2023-02-15T17:36:12.723Z,15.27
2023-02-15T17:38:43.124Z,16.27
2023-02-15T17:41:12.949Z,18.20
2023-02-15T17:43:43.263Z,16.70
2023-02-15T17:46:13.833Z,16.37
2023-02-15T17:48:46.065Z,15.07
2023-02-15T17:51:16.481Z,14.67
2023-02-15T17:54:06.549Z,14.13
2023-02-15T17:56:33.739Z,15.83
2023-02-15T17:59:07.547Z,13.73
2023-02-15T18:01:50.213Z,14.57
2023-02-15T18:04:35.436Z,14.63
2023-02-15T18:07:17.478Z,16.47
2023-02-15T18:09:59.647Z,15.83
2023-02-15T18:12:30.581Z,20.13
2023-02-15T18:15:01.502Z,16.67
2023-02-15T18:17:32.667Z,13.37
2023-02-15T18:20:05.866Z,14.17
2023-02-15T18:22:36.747Z,17.50
2023-02-15T18:25:06.425Z,14.80
2023-02-15T18:27:35.935Z,12.93
2023-02-15T18:30:05.664Z,15.17
2023-02-15T18:32:37.744Z,16.57
2023-02-15T18:35:10.579Z,14.03
2023-02-15T18:37:40.199Z,14.93
2023-02-15T18:40:17.068Z,12.17
2023-02-15T18:42:49.238Z,16.53
2023-02-15T18:45:20.059Z,15.17
2023-02-15T18:47:50.116Z,14.17
2023-02-15T18:50:23.186Z,15.77
2023-02-15T18:52:53.446Z,15.37
2023-02-15T18:55:23.822Z,13.30
2023-02-15T18:57:54.771Z,13.00
2023-02-15T19:00:25.910Z,18.53
2023-02-15T19:02:55.508Z,19.07
2023-02-15T19:05:29.751Z,24.70
2023-02-15T19:07:59.995Z,22.93
2023-02-15T19:10:30.560Z,20.67
2023-02-15T19:13:00.294Z,19.03
2023-02-15T19:15:30.899Z,16.90
2023-02-15T19:18:00.546Z,20.13
2023-02-15T19:20:33.338Z,21.40
2023-02-15T19:23:03.906Z,22.13
2023-02-15T19:25:37.688Z,17.23
2023-02-15T19:28:09.906Z,16.97
2023-02-15T19:30:40.487Z,21.77
2023-02-15T19:33:13.900Z,22.70
2023-02-15T19:35:47.287Z,16.67
2023-02-15T19:38:20.877Z,20.50
2023-02-15T19:40:50.671Z,17.80
2023-02-15T19:43:26.014Z,18.63
2023-02-15T19:45:56.064Z,19.83
2023-02-15T19:48:25.620Z,17.83
2023-02-15T19:50:58.278Z,19.37
2023-02-15T19:53:29.080Z,21.87
2023-02-15T19:55:58.599Z,18.87
2023-02-15T19:58:28.077Z,21.73
2023-02-15T20:00:57.668Z,22.40
2023-02-15T20:03:27.452Z,24.87
2023-02-15T20:05:59.664Z,30.77
2023-02-15T20:08:29.348Z,24.47
2023-02-15T20:10:59.920Z,25.03
2023-02-15T20:13:29.809Z,21.17
2023-02-15T20:16:01.669Z,25.27
2023-02-15T20:18:31.283Z,20.33
2023-02-15T20:21:04.905Z,18.07
2023-02-15T20:23:36.483Z,23.37
2023-02-15T20:26:15.396Z,21.50
2023-02-15T20:28:45.087Z,21.87
2023-02-15T20:31:17.346Z,24.20
2023-02-15T20:33:47.060Z,16.83
2023-02-15T20:36:19.747Z,19.77
2023-02-15T20:38:49.488Z,18.50
2023-02-15T20:41:32.189Z,19.03
2023-02-15T20:44:01.769Z,20.97
2023-02-15T20:46:31.326Z,20.93
2023-02-15T20:49:00.895Z,22.10
2023-02-15T20:51:33.014Z,21.30
2023-02-15T20:54:02.653Z,26.07
2023-02-15T20:56:33.751Z,25.23
2023-02-15T20:59:03.449Z,25.10
2023-02-15T21:01:32.987Z,19.37
2023-02-15T21:04:03.052Z,18.67
2023-02-15T21:06:35.249Z,18.97
2023-02-15T21:09:04.892Z,19.43
2023-02-15T21:11:34.412Z,16.93
2023-02-15T21:14:06.923Z,16.53
2023-02-15T21:16:36.637Z,21.70
2023-02-15T21:19:14.243Z,18.80
2023-02-15T21:21:46.783Z,21.20
2023-02-15T21:24:17.644Z,18.17
2023-02-15T21:26:48.519Z,22.73
2023-02-15T21:29:19.384Z,23.23
2023-02-15T21:31:49.335Z,23.90
2023-02-15T21:34:19.229Z,24.00
2023-02-15T21:36:51.884Z,21.13
2023-02-15T21:39:22.684Z,17.13
2023-02-15T21:42:05.548Z,15.27
2023-02-15T21:44:47.923Z,15.07
2023-02-15T21:47:34.090Z,15.27
2023-02-15T21:50:23.747Z,14.17
2023-02-15T21:52:53.384Z,11.83
2023-02-15T21:55:23.016Z,17.77
2023-02-15T21:57:52.549Z,15.20
2023-02-15T22:00:23.585Z,19.10
2023-02-15T22:02:54.923Z,16.30
2023-02-15T22:05:26.312Z,18.67
2023-02-15T22:07:58.534Z,19.80
2023-02-15T22:10:29.739Z,17.93
2023-02-15T22:12:59.347Z,17.00
2023-02-15T22:15:31.665Z,15.40
2023-02-15T22:18:01.299Z,16.63
2023-02-15T22:20:30.984Z,15.67
2023-02-15T22:23:03.148Z,17.73
2023-02-15T22:25:32.745Z,16.57
2023-02-15T22:28:02.328Z,19.13
2023-02-15T22:30:32.967Z,16.43
2023-02-15T22:33:03.228Z,15.43
2023-02-15T22:35:33.932Z,17.60
2023-02-15T22:38:05.999Z,17.10
2023-02-15T22:40:36.641Z,20.63
2023-02-15T22:43:07.656Z,20.13
2023-02-15T22:45:37.998Z,14.70
2023-02-15T22:48:07.847Z,16.03
2023-02-15T22:50:37.932Z,18.20
2023-02-15T22:53:12.162Z,14.33
2023-02-15T22:55:41.787Z,13.67
2023-02-15T22:58:16.518Z,14.40
2023-02-15T23:00:46.343Z,14.20
2023-02-15T23:03:17.385Z,15.37
2023-02-15T23:05:47.378Z,14.47
2023-02-15T23:08:19.763Z,15.03
2023-02-15T23:10:51.220Z,17.43
2023-02-15T23:13:33.017Z,14.97
2023-02-15T23:16:03.819Z,16.07
2023-02-15T23:18:34.965Z,16.53
2023-02-15T23:21:05.635Z,15.90
2023-02-15T23:23:38.726Z,16.10
2023-02-15T23:26:10.269Z,20.50
2023-02-15T23:28:40.410Z,15.37
2023-02-15T23:31:16.760Z,14.60
2023-02-15T23:33:46.754Z,20.70
2023-02-15T23:36:27.344Z,16.40
2023-02-15T23:39:20.578Z,18.10
2023-02-15T23:41:47.531Z,14.43
2023-02-15T23:44:17.155Z,18.40
2023-02-15T23:46:48.141Z,16.53
2023-02-15T23:49:18.636Z,17.57
2023-02-15T23:51:49.268Z,18.50
2023-02-15T23:54:22.249Z,19.50
2023-02-15T23:56:52.753Z,13.73
2023-02-15T23:59:23.439Z,18.23
